Time;durP1;ratioP1;P1;durP2;ratioP2;P2;SDS_P1;SDS_P2;PMS_P1;PMS_P2;Temp;Humidity;BMP_temperature;BMP_pressure;BME280_temperature;BME280_humidity;BME280_pressure;Samples;Min_cycle;Max_cycle;Signal;HPM_P1;HPM_P2
2023/12/14 00:00:15;;;;;;;10.07;7.82;;;;;;;;;;491209;28;1387;-74
2023/12/14 00:00:31;;;;;;;9.85;7.50;;;;;;;;;;491355;28;1367;-74
2023/12/14 00:00:46;;;;;;;10.47;7.80;;;;;;;;;;491151;28;1154;-74
2023/12/14 00:01:02;;;;;;;13.50;8.02;;;;;;;;;;492303;28;1034;-74
2023/12/14 00:01:17;;;;;;;16.63;7.83;;;;;;;;;;491380;28;1120;-74
2023/12/14 00:01:33;;;;;;;14.07;7.45;;;;;;;;;;493366;27;1364;-74
2023/12/14 00:01:48;;;;;;;8.67;6.83;;;;;;;;;;492050;28;1072;-74
2023/12/14 00:02:04;;;;;;;7.95;6.72;;;;;;;;;;494234;27;953;-74
2023/12/14 00:02:19;;;;;;;8.07;6.70;;;;;;;;;;493981;27;1019;-74
2023/12/14 00:02:35;;;;;;;7.65;6.50;;;;;;;;;;493270;27;1388;-74
2023/12/14 00:02:50;;;;;;;8.43;7.17;;;;;;;;;;493973;27;1406;-74
2023/12/14 00:03:05;;;;;;;9.07;7.53;;;;;;;;;;490822;28;1337;-74
2023/12/14 00:03:21;;;;;;;9.55;7.50;;;;;;;;;;491439;28;1290;-74
2023/12/14 00:03:36;;;;;;;10.47;7.40;;;;;;;;;;491462;28;1348;-74
2023/12/14 00:03:52;;;;;;;17.33;7.43;;;;;;;;;;491459;28;1136;-74
2023/12/14 00:04:07;;;;;;;23.17;7.67;;;;;;;;;;491954;28;1323;-75
2023/12/14 00:04:23;;;;;;;19.45;7.70;;;;;;;;;;492065;28;1768;-74
2023/12/14 00:04:40;;;;;;;17.10;7.23;;;;;;;;;;491228;28;1116;-74
2023/12/14 00:04:55;;;;;;;14.68;7.25;;;;;;;;;;489850;28;1440;-74
2023/12/14 00:05:11;;;;;;;10.80;7.30;;;;;;;;;;492691;27;1328;-74
2023/12/14 00:05:26;;;;;;;8.00;6.68;;;;;;;;;;494548;27;1346;-74
2023/12/14 00:05:42;;;;;;;7.47;6.30;;;;;;;;;;494357;27;1377;-74
2023/12/14 00:05:57;;;;;;;9.13;6.83;;;;;;;;;;491698;28;1366;-75
2023/12/14 00:06:13;;;;;;;9.25;7.32;;;;;;;;;;491704;28;1433;-74
2023/12/14 00:06:29;;;;;;;9.32;7.25;;;;;;;;;;492352;28;1147;-74
2023/12/14 00:06:44;;;;;;;8.35;7.20;;;;;;;;;;491823;27;1276;-75
2023/12/14 00:07:00;;;;;;;13.03;7.20;;;;;;;;;;493453;27;1308;-74
2023/12/14 00:07:16;;;;;;;14.47;7.20;;;;;;;;;;493494;27;1557;-75
2023/12/14 00:07:31;;;;;;;13.50;7.90;;;;;;;;;;494099;27;1335;-74
2023/12/14 00:07:47;;;;;;;19.30;8.80;;;;;;;;;;491957;28;1334;-74
2023/12/14 00:08:02;;;;;;;16.63;8.50;;;;;;;;;;491677;28;1367;-74
2023/12/14 00:08:18;;;;;;;11.15;8.10;;;;;;;;;;492324;28;1037;-74
2023/12/14 00:08:33;;;;;;;12.13;8.33;;;;;;;;;;491547;28;1340;-74
2023/12/14 00:08:49;;;;;;;13.77;8.68;;;;;;;;;;490340;28;1182;-74
2023/12/14 00:09:04;;;;;;;18.33;8.95;;;;;;;;;;489841;28;1380;-74
2023/12/14 00:09:20;;;;;;;15.93;8.60;;;;;;;;;;492383;28;935;-74
2023/12/14 00:09:35;;;;;;;10.03;8.00;;;;;;;;;;492521;27;1287;-74
2023/12/14 00:09:50;;;;;;;9.23;7.60;;;;;;;;;;492246;28;1664;-74
2023/12/14 00:10:07;;;;;;;10.10;8.13;;;;;;;;;;489313;28;1348;-74
2023/12/14 00:10:22;;;;;;;12.63;8.30;;;;;;;;;;490217;28;1064;-74
2023/12/14 00:10:38;;;;;;;12.88;7.85;;;;;;;;;;489801;28;1424;-74
2023/12/14 00:10:53;;;;;;;13.63;8.27;;;;;;;;;;492267;28;1291;-74
2023/12/14 00:11:11;;;;;;;15.20;8.63;;;;;;;;;;492294;28;1379;-75
2023/12/14 00:11:26;;;;;;;17.23;8.70;;;;;;;;;;491491;28;1327;-75
2023/12/14 00:11:42;;;;;;;15.60;8.60;;;;;;;;;;491909;27;1006;-74
2023/12/14 00:11:57;;;;;;;14.68;8.55;;;;;;;;;;494760;27;1442;-74
2023/12/14 00:12:13;;;;;;;16.23;8.50;;;;;;;;;;495772;27;1169;-74
2023/12/14 00:12:28;;;;;;;17.02;8.45;;;;;;;;;;495516;27;921;-74
2023/12/14 00:12:44;;;;;;;15.63;8.40;;;;;;;;;;495975;27;1283;-75
2023/12/14 00:12:59;;;;;;;15.88;8.30;;;;;;;;;;495260;27;1315;-74
2023/12/14 00:13:15;;;;;;;16.70;8.48;;;;;;;;;;493357;27;1346;-74
2023/12/14 00:13:30;;;;;;;14.20;8.60;;;;;;;;;;492851;27;1568;-74
2023/12/14 00:13:46;;;;;;;10.17;8.10;;;;;;;;;;492079;27;1465;-74
2023/12/14 00:14:01;;;;;;;11.70;8.27;;;;;;;;;;492154;27;925;-74
2023/12/14 00:14:17;;;;;;;12.93;8.50;;;;;;;;;;492478;27;960;-74
2023/12/14 00:14:32;;;;;;;11.45;8.27;;;;;;;;;;492413;27;1279;-74
2023/12/14 00:14:48;;;;;;;11.47;8.13;;;;;;;;;;490778;28;1756;-74
2023/12/14 00:15:04;;;;;;;10.88;7.57;;;;;;;;;;490538;28;1108;-74
2023/12/14 00:15:19;;;;;;;10.75;7.93;;;;;;;;;;491980;27;1490;-75
2023/12/14 00:15:35;;;;;;;13.00;8.70;;;;;;;;;;494076;27;1604;-74
2023/12/14 00:15:50;;;;;;;12.73;8.70;;;;;;;;;;494183;27;960;-74
2023/12/14 00:16:07;;;;;;;10.33;8.30;;;;;;;;;;493078;27;1284;-74
2023/12/14 00:16:22;;;;;;;9.85;8.18;;;;;;;;;;493781;27;1023;-75
2023/12/14 00:16:38;;;;;;;9.50;7.93;;;;;;;;;;492146;27;1176;-74
2023/12/14 00:16:53;;;;;;;8.23;7.03;;;;;;;;;;491596;28;1316;-74
2023/12/14 00:17:08;;;;;;;8.77;7.20;;;;;;;;;;491157;28;1247;-75
2023/12/14 00:17:24;;;;;;;10.13;8.20;;;;;;;;;;491663;28;1303;-75
2023/12/14 00:17:39;;;;;;;9.67;8.03;;;;;;;;;;491862;28;1927;-74
2023/12/14 00:17:55;;;;;;;8.25;7.18;;;;;;;;;;491680;28;1289;-74
2023/12/14 00:18:10;;;;;;;8.17;7.17;;;;;;;;;;491856;28;1061;-74
2023/12/14 00:18:26;;;;;;;10.13;7.70;;;;;;;;;;491586;28;1040;-74
2023/12/14 00:18:42;;;;;;;20.43;8.57;;;;;;;;;;491510;27;956;-74
2023/12/14 00:18:57;;;;;;;19.83;8.57;;;;;;;;;;491501;28;1327;-74
2023/12/14 00:19:12;;;;;;;11.60;8.00;;;;;;;;;;490629;28;1220;-74
2023/12/14 00:19:28;;;;;;;15.15;7.90;;;;;;;;;;490822;28;1026;-74
2023/12/14 00:19:43;;;;;;;19.87;8.30;;;;;;;;;;490951;28;949;-74
2023/12/14 00:19:59;;;;;;;22.25;8.70;;;;;;;;;;491625;28;1053;-74
2023/12/14 00:20:14;;;;;;;25.63;8.50;;;;;;;;;;491825;28;1056;-74
2023/12/14 00:20:30;;;;;;;20.35;8.20;;;;;;;;;;491510;28;916;-74
2023/12/14 00:20:45;;;;;;;15.80;8.23;;;;;;;;;;492161;27;1076;-74
2023/12/14 00:21:01;;;;;;;18.67;8.40;;;;;;;;;;493780;27;999;-75
2023/12/14 00:21:16;;;;;;;13.47;7.90;;;;;;;;;;493921;27;1274;-74
2023/12/14 00:21:31;;;;;;;10.00;7.63;;;;;;;;;;493704;27;1171;-74
2023/12/14 00:21:47;;;;;;;16.93;8.20;;;;;;;;;;493963;27;948;-74
2023/12/14 00:22:02;;;;;;;21.83;8.50;;;;;;;;;;493715;27;920;-74
2023/12/14 00:22:18;;;;;;;15.88;8.10;;;;;;;;;;494361;27;984;-74
2023/12/14 00:22:33;;;;;;;15.23;7.77;;;;;;;;;;493804;27;1091;-74
2023/12/14 00:22:49;;;;;;;23.48;8.50;;;;;;;;;;493837;27;1056;-74
2023/12/14 00:23:04;;;;;;;25.37;8.90;;;;;;;;;;492084;28;1253;-74
2023/12/14 00:23:20;;;;;;;22.02;8.25;;;;;;;;;;493751;27;1199;-74
2023/12/14 00:23:35;;;;;;;22.55;8.32;;;;;;;;;;494135;27;1126;-74
2023/12/14 00:23:51;;;;;;;24.60;8.70;;;;;;;;;;494118;27;1095;-74
2023/12/14 00:24:07;;;;;;;19.50;8.50;;;;;;;;;;493673;27;1345;-74
2023/12/14 00:24:22;;;;;;;18.63;8.40;;;;;;;;;;493695;27;1051;-75
2023/12/14 00:24:37;;;;;;;27.13;8.70;;;;;;;;;;493671;27;1064;-74
2023/12/14 00:24:53;;;;;;;25.73;8.77;;;;;;;;;;493840;27;940;-74
2023/12/14 00:25:08;;;;;;;20.33;8.40;;;;;;;;;;495764;27;1148;-74
2023/12/14 00:25:24;;;;;;;21.17;8.50;;;;;;;;;;496190;27;912;-74
2023/12/14 00:25:39;;;;;;;20.60;8.60;;;;;;;;;;496181;27;1190;-74
2023/12/14 00:25:56;;;;;;;17.30;8.80;;;;;;;;;;494916;27;1189;-74
2023/12/14 00:26:11;;;;;;;14.80;8.88;;;;;;;;;;493700;27;1255;-74
2023/12/14 00:26:26;;;;;;;15.55;8.80;;;;;;;;;;493464;27;1007;-74
2023/12/14 00:26:42;;;;;;;18.93;8.63;;;;;;;;;;493725;27;1292;-75
2023/12/14 00:26:57;;;;;;;15.75;8.18;;;;;;;;;;492383;27;1113;-74
2023/12/14 00:27:13;;;;;;;10.40;7.87;;;;;;;;;;492231;27;1017;-74
2023/12/14 00:27:28;;;;;;;8.80;7.47;;;;;;;;;;492718;27;992;-75
2023/12/14 00:27:43;;;;;;;8.85;7.10;;;;;;;;;;492430;27;1103;-74
2023/12/14 00:27:59;;;;;;;8.77;6.93;;;;;;;;;;491435;28;1170;-74
2023/12/14 00:28:14;;;;;;;8.13;6.78;;;;;;;;;;490908;28;1064;-74
2023/12/14 00:28:30;;;;;;;8.27;6.40;;;;;;;;;;491493;28;927;-74
2023/12/14 00:28:45;;;;;;;8.57;6.50;;;;;;;;;;490866;27;1097;-74
2023/12/14 00:29:01;;;;;;;7.83;6.47;;;;;;;;;;489007;28;1064;-74
2023/12/14 00:29:16;;;;;;;7.95;6.90;;;;;;;;;;487456;28;1193;-74
2023/12/14 00:29:32;;;;;;;8.73;7.50;;;;;;;;;;489084;28;1076;-74
2023/12/14 00:29:47;;;;;;;9.13;7.45;;;;;;;;;;489480;28;1071;-74
2023/12/14 00:30:03;;;;;;;8.40;7.00;;;;;;;;;;491361;28;1041;-74
2023/12/14 00:30:18;;;;;;;8.20;6.82;;;;;;;;;;491257;28;1028;-74
2023/12/14 00:30:34;;;;;;;9.63;7.40;;;;;;;;;;491001;28;1031;-74
2023/12/14 00:30:49;;;;;;;13.93;8.18;;;;;;;;;;491380;28;1107;-74
2023/12/14 00:31:05;;;;;;;15.00;8.50;;;;;;;;;;494693;27;888;-73
2023/12/14 00:31:20;;;;;;;11.23;7.90;;;;;;;;;;493939;27;1226;-74
2023/12/14 00:31:35;;;;;;;9.80;7.33;;;;;;;;;;493445;27;1201;-74
2023/12/14 00:31:51;;;;;;;12.70;7.63;;;;;;;;;;493862;27;1534;-75
2023/12/14 00:32:06;;;;;;;14.57;7.97;;;;;;;;;;492546;27;1267;-75
2023/12/14 00:32:22;;;;;;;10.93;7.63;;;;;;;;;;489568;28;1366;-74
2023/12/14 00:32:37;;;;;;;11.02;7.72;;;;;;;;;;490915;28;1067;-75
2023/12/14 00:32:53;;;;;;;18.57;8.37;;;;;;;;;;488803;28;1123;-75
2023/12/14 00:33:08;;;;;;;21.83;8.48;;;;;;;;;;488376;28;1139;-74
2023/12/14 00:33:23;;;;;;;20.63;8.20;;;;;;;;;;490278;28;933;-74
2023/12/14 00:33:39;;;;;;;17.50;8.10;;;;;;;;;;489710;28;1192;-74
2023/12/14 00:33:54;;;;;;;16.10;8.07;;;;;;;;;;489493;28;1028;-74
2023/12/14 00:34:10;;;;;;;18.30;8.30;;;;;;;;;;491816;28;936;-74
2023/12/14 00:34:25;;;;;;;18.20;8.80;;;;;;;;;;493740;27;1055;-74
2023/12/14 00:34:41;;;;;;;15.63;8.57;;;;;;;;;;493237;27;1317;-74
2023/12/14 00:34:56;;;;;;;15.73;8.35;;;;;;;;;;493585;27;1119;-74
2023/12/14 00:35:12;;;;;;;13.37;8.07;;;;;;;;;;495915;27;1151;-74
2023/12/14 00:35:27;;;;;;;13.15;8.23;;;;;;;;;;495448;27;1040;-74
2023/12/14 00:35:42;;;;;;;15.47;8.83;;;;;;;;;;495968;27;1033;-74
2023/12/14 00:35:58;;;;;;;15.63;8.68;;;;;;;;;;496612;27;1920;-74
2023/12/14 00:36:20;;;;;;;14.47;8.43;;;;;;;;;;496179;27;1539;-74
2023/12/14 00:36:35;;;;;;;12.13;8.15;;;;;;;;;;496088;27;1054;-74
2023/12/14 00:36:51;;;;;;;14.07;8.50;;;;;;;;;;493241;27;1224;-74
2023/12/14 00:37:07;;;;;;;11.90;8.20;;;;;;;;;;494063;27;1131;-74
2023/12/14 00:37:22;;;;;;;14.68;8.15;;;;;;;;;;492960;27;944;-74
2023/12/14 00:37:37;;;;;;;21.33;8.77;;;;;;;;;;491275;28;2014;-74
2023/12/14 00:37:53;;;;;;;24.17;8.73;;;;;;;;;;491670;28;928;-75
2023/12/14 00:38:08;;;;;;;22.00;8.77;;;;;;;;;;491786;28;1057;-74
2023/12/14 00:38:24;;;;;;;19.73;9.07;;;;;;;;;;490585;28;1352;-74
2023/12/14 00:38:39;;;;;;;22.53;9.23;;;;;;;;;;490955;28;1084;-74
2023/12/14 00:38:57;;;;;;;24.45;9.40;;;;;;;;;;492618;27;981;-74
2023/12/14 00:39:19;;;;;;;21.42;8.98;;;;;;;;;;492440;27;1288;-74
2023/12/14 00:39:34;;;;;;;16.17;8.90;;;;;;;;;;491694;28;2099;-74
2023/12/14 00:39:50;;;;;;;16.67;9.00;;;;;;;;;;491763;28;1012;-74
2023/12/14 00:40:06;;;;;;;17.43;9.63;;;;;;;;;;491820;28;1099;-74
2023/12/14 00:40:21;;;;;;;20.23;9.73;;;;;;;;;;493164;27;1275;-75
2023/12/14 00:40:37;;;;;;;18.52;9.30;;;;;;;;;;493960;27;1059;-74
2023/12/14 00:40:52;;;;;;;14.70;9.47;;;;;;;;;;493575;27;1024;-74
2023/12/14 00:41:08;;;;;;;14.27;9.32;;;;;;;;;;493920;27;952;-74
2023/12/14 00:41:23;;;;;;;12.20;8.73;;;;;;;;;;493532;27;1217;-74
2023/12/14 00:41:39;;;;;;;12.45;8.80;;;;;;;;;;491704;28;1415;-74
2023/12/14 00:41:54;;;;;;;14.87;8.93;;;;;;;;;;490104;28;1345;-74
2023/12/14 00:42:09;;;;;;;16.58;9.35;;;;;;;;;;489836;28;940;-74
2023/12/14 00:42:25;;;;;;;17.93;9.73;;;;;;;;;;489443;28;1096;-74
2023/12/14 00:42:40;;;;;;;15.88;9.27;;;;;;;;;;489632;28;1024;-75
2023/12/14 00:42:56;;;;;;;12.97;9.00;;;;;;;;;;490380;28;932;-74
2023/12/14 00:43:11;;;;;;;17.13;9.50;;;;;;;;;;488848;28;1289;-75
2023/12/14 00:43:26;;;;;;;19.70;9.63;;;;;;;;;;489334;28;1366;-75
2023/12/14 00:43:42;;;;;;;15.50;9.17;;;;;;;;;;491587;28;956;-74
2023/12/14 00:43:57;;;;;;;15.93;9.15;;;;;;;;;;493898;27;1379;-74
2023/12/14 00:44:13;;;;;;;17.20;9.20;;;;;;;;;;492873;27;1119;-74
2023/12/14 00:44:28;;;;;;;16.00;9.33;;;;;;;;;;494481;27;1687;-75
2023/12/14 00:44:44;;;;;;;14.70;9.37;;;;;;;;;;493262;27;1206;-74
2023/12/14 00:44:59;;;;;;;16.47;9.23;;;;;;;;;;493802;27;1070;-74
2023/12/14 00:45:15;;;;;;;19.08;9.43;;;;;;;;;;493269;27;1201;-75
2023/12/14 00:45:30;;;;;;;19.40;9.70;;;;;;;;;;494155;27;1024;-74
2023/12/14 00:45:45;;;;;;;16.48;9.55;;;;;;;;;;493704;27;1282;-74
2023/12/14 00:46:01;;;;;;;13.87;9.27;;;;;;;;;;493247;27;956;-74
2023/12/14 00:46:16;;;;;;;14.25;9.40;;;;;;;;;;492863;27;1209;-74
2023/12/14 00:46:32;;;;;;;13.40;9.30;;;;;;;;;;492144;27;1553;-74
2023/12/14 00:46:47;;;;;;;12.45;8.82;;;;;;;;;;492641;27;1087;-74
2023/12/14 00:47:03;;;;;;;10.97;8.40;;;;;;;;;;493236;27;1077;-74
2023/12/14 00:47:18;;;;;;;10.88;8.20;;;;;;;;;;493558;27;1330;-75
2023/12/14 00:47:33;;;;;;;12.40;8.87;;;;;;;;;;493284;27;1405;-74
2023/12/14 00:47:49;;;;;;;15.00;8.70;;;;;;;;;;494667;27;1097;-74
2023/12/14 00:48:05;;;;;;;14.27;8.15;;;;;;;;;;493901;27;1012;-74
2023/12/14 00:48:21;;;;;;;13.38;9.05;;;;;;;;;;494510;27;1481;-74
2023/12/14 00:48:36;;;;;;;13.00;8.88;;;;;;;;;;495955;27;1176;-74
2023/12/14 00:48:52;;;;;;;13.03;8.50;;;;;;;;;;496099;27;1082;-74
2023/12/14 00:49:08;;;;;;;13.55;8.88;;;;;;;;;;494199;27;1305;-74
2023/12/14 00:49:23;;;;;;;13.38;9.02;;;;;;;;;;493559;27;1076;-74
2023/12/14 00:49:38;;;;;;;13.60;9.13;;;;;;;;;;493672;27;1017;-74
2023/12/14 00:49:54;;;;;;;12.43;8.90;;;;;;;;;;491524;28;1411;-74
2023/12/14 00:50:09;;;;;;;11.93;8.40;;;;;;;;;;491822;28;1033;-74
2023/12/14 00:50:25;;;;;;;12.82;8.50;;;;;;;;;;492453;28;987;-74
2023/12/14 00:50:40;;;;;;;12.33;9.00;;;;;;;;;;489991;28;1197;-74
2023/12/14 00:50:56;;;;;;;12.20;8.97;;;;;;;;;;488781;28;1343;-74
2023/12/14 00:51:11;;;;;;;12.88;8.95;;;;;;;;;;490603;28;1029;-74
2023/12/14 00:51:26;;;;;;;10.43;8.20;;;;;;;;;;490933;28;933;-74
2023/12/14 00:51:42;;;;;;;10.40;7.80;;;;;;;;;;490762;28;1045;-74
2023/12/14 00:51:58;;;;;;;11.27;7.63;;;;;;;;;;493353;27;1056;-74
2023/12/14 00:52:13;;;;;;;10.90;7.57;;;;;;;;;;493058;27;1360;-74
2023/12/14 00:52:29;;;;;;;10.25;7.80;;;;;;;;;;492486;27;995;-74
2023/12/14 00:52:44;;;;;;;10.30;8.03;;;;;;;;;;494467;27;1121;-74
2023/12/14 00:53:00;;;;;;;11.07;7.90;;;;;;;;;;493495;27;999;-74
2023/12/14 00:53:15;;;;;;;11.40;7.90;;;;;;;;;;493726;27;1277;-75
2023/12/14 00:53:31;;;;;;;13.50;8.95;;;;;;;;;;494168;27;1056;-74
2023/12/14 00:53:46;;;;;;;19.30;9.70;;;;;;;;;;493737;27;1080;-74
2023/12/14 00:54:02;;;;;;;23.97;9.57;;;;;;;;;;494342;27;915;-74
2023/12/14 00:54:17;;;;;;;24.75;9.38;;;;;;;;;;494103;27;1154;-74
2023/12/14 00:54:33;;;;;;;22.35;9.45;;;;;;;;;;493591;27;1061;-74
2023/12/14 00:54:48;;;;;;;23.47;9.77;;;;;;;;;;492166;28;1210;-75
2023/12/14 00:55:04;;;;;;;22.80;9.80;;;;;;;;;;491729;27;1116;-74
2023/12/14 00:55:20;;;;;;;22.40;9.73;;;;;;;;;;493345;27;1030;-74
2023/12/14 00:55:35;;;;;;;25.00;10.20;;;;;;;;;;492159;27;1261;-74
2023/12/14 00:55:51;;;;;;;21.67;10.27;;;;;;;;;;490521;28;1405;-74
2023/12/14 00:56:09;;;;;;;15.70;9.23;;;;;;;;;;491148;28;980;-74
2023/12/14 00:56:25;;;;;;;14.90;8.77;;;;;;;;;;490454;28;1175;-75
2023/12/14 00:56:40;;;;;;;16.30;9.20;;;;;;;;;;490908;28;1132;-74
2023/12/14 00:56:55;;;;;;;16.43;9.30;;;;;;;;;;489406;28;1250;-74
2023/12/14 00:57:11;;;;;;;15.40;9.60;;;;;;;;;;488853;28;1181;-74
2023/12/14 00:57:26;;;;;;;18.03;10.33;;;;;;;;;;489021;28;1224;-74
2023/12/14 00:57:42;;;;;;;17.88;10.25;;;;;;;;;;490412;28;1953;-74
2023/12/14 00:57:57;;;;;;;12.63;9.00;;;;;;;;;;489603;28;1325;-74
2023/12/14 00:58:13;;;;;;;13.00;8.88;;;;;;;;;;490616;28;1181;-74
2023/12/14 00:58:28;;;;;;;16.07;9.60;;;;;;;;;;487716;28;1450;-75
2023/12/14 00:58:44;;;;;;;15.77;9.10;;;;;;;;;;487115;28;1361;-74
2023/12/14 00:58:59;;;;;;;14.67;8.97;;;;;;;;;;487032;28;1278;-74
2023/12/14 00:59:14;;;;;;;17.10;9.60;;;;;;;;;;486294;28;920;-74
2023/12/14 00:59:30;;;;;;;16.93;9.83;;;;;;;;;;489052;28;1033;-74
2023/12/14 00:59:45;;;;;;;15.43;9.47;;;;;;;;;;486797;28;1176;-74
2023/12/14 01:00:01;;;;;;;15.40;9.20;;;;;;;;;;488881;28;1038;-74
2023/12/14 01:00:17;;;;;;;14.77;9.43;;;;;;;;;;487707;28;1201;-74
2023/12/14 01:00:32;;;;;;;14.38;9.45;;;;;;;;;;488912;28;1188;-75
2023/12/14 01:00:47;;;;;;;15.65;9.43;;;;;;;;;;490255;28;1226;-75
2023/12/14 01:01:03;;;;;;;18.57;9.80;;;;;;;;;;491649;28;1199;-74
2023/12/14 01:01:19;;;;;;;20.65;9.65;;;;;;;;;;491681;28;1037;-74
2023/12/14 01:01:34;;;;;;;18.50;9.40;;;;;;;;;;491434;28;1092;-75
2023/12/14 01:01:49;;;;;;;17.90;9.57;;;;;;;;;;491958;28;1139;-75
2023/12/14 01:02:05;;;;;;;17.73;9.60;;;;;;;;;;488075;28;1188;-74
2023/12/14 01:02:20;;;;;;;20.95;9.60;;;;;;;;;;490075;28;1192;-74
2023/12/14 01:02:37;;;;;;;20.73;9.23;;;;;;;;;;491901;28;957;-74
2023/12/14 01:02:52;;;;;;;17.70;9.10;;;;;;;;;;492136;27;1147;-74
2023/12/14 01:03:08;;;;;;;17.77;9.20;;;;;;;;;;493662;27;1020;-74
2023/12/14 01:03:23;;;;;;;18.50;9.25;;;;;;;;;;493711;27;1061;-75
2023/12/14 01:03:38;;;;;;;18.03;9.67;;;;;;;;;;492924;27;1008;-74
2023/12/14 01:03:54;;;;;;;20.77;10.10;;;;;;;;;;493728;27;1398;-75
2023/12/14 01:04:09;;;;;;;20.92;10.18;;;;;;;;;;495116;27;1123;-74
2023/12/14 01:04:25;;;;;;;18.47;9.67;;;;;;;;;;495339;27;1188;-74
2023/12/14 01:04:41;;;;;;;16.48;9.00;;;;;;;;;;495821;27;1027;-75
2023/12/14 01:04:57;;;;;;;14.05;8.43;;;;;;;;;;496086;27;1008;-75
2023/12/14 01:05:12;;;;;;;12.57;8.32;;;;;;;;;;495767;27;1043;-75
2023/12/14 01:05:28;;;;;;;13.63;8.83;;;;;;;;;;496086;27;1268;-75
2023/12/14 01:05:44;;;;;;;15.02;8.65;;;;;;;;;;495466;27;967;-74
2023/12/14 01:05:59;;;;;;;15.55;8.88;;;;;;;;;;493575;27;1341;-74
2023/12/14 01:06:15;;;;;;;14.90;9.17;;;;;;;;;;494166;27;1320;-76
2023/12/14 01:06:30;;;;;;;16.13;9.10;;;;;;;;;;491515;28;1218;-74
2023/12/14 01:06:45;;;;;;;15.27;9.17;;;;;;;;;;491492;28;1379;-74
2023/12/14 01:07:01;;;;;;;12.73;8.75;;;;;;;;;;491957;28;1062;-74
2023/12/14 01:07:16;;;;;;;14.50;9.00;;;;;;;;;;491793;28;1032;-74
2023/12/14 01:07:32;;;;;;;14.60;9.07;;;;;;;;;;492074;28;1130;-74
2023/12/14 01:07:47;;;;;;;12.10;8.70;;;;;;;;;;491640;27;1201;-74
2023/12/14 01:08:03;;;;;;;13.03;9.17;;;;;;;;;;494010;27;1138;-74
2023/12/14 01:08:18;;;;;;;15.35;9.50;;;;;;;;;;493689;27;1170;-74
2023/12/14 01:08:34;;;;;;;14.10;8.98;;;;;;;;;;491461;28;1385;-74
2023/12/14 01:08:49;;;;;;;14.07;8.90;;;;;;;;;;491526;28;1125;-74
2023/12/14 01:09:05;;;;;;;15.63;9.27;;;;;;;;;;489949;28;1390;-74
2023/12/14 01:09:20;;;;;;;15.35;9.05;;;;;;;;;;490381;28;1413;-74
2023/12/14 01:09:35;;;;;;;14.63;9.10;;;;;;;;;;490155;28;1258;-74
2023/12/14 01:09:51;;;;;;;14.02;9.43;;;;;;;;;;490370;28;1094;-74
2023/12/14 01:10:07;;;;;;;13.23;9.40;;;;;;;;;;487769;28;1189;-74
2023/12/14 01:10:22;;;;;;;13.68;9.18;;;;;;;;;;488350;28;1215;-75
2023/12/14 01:10:38;;;;;;;14.27;8.82;;;;;;;;;;488650;28;1221;-74
2023/12/14 01:10:53;;;;;;;14.80;9.30;;;;;;;;;;488554;28;1175;-74
2023/12/14 01:11:08;;;;;;;17.60;9.80;;;;;;;;;;488414;28;1112;-74
2023/12/14 01:11:24;;;;;;;18.33;9.75;;;;;;;;;;489534;28;1239;-74
2023/12/14 01:11:39;;;;;;;16.83;10.17;;;;;;;;;;490464;28;924;-74
2023/12/14 01:11:55;;;;;;;14.70;9.68;;;;;;;;;;489672;28;922;-74
2023/12/14 01:12:10;;;;;;;13.43;9.03;;;;;;;;;;491598;28;889;-74
2023/12/14 01:12:26;;;;;;;15.68;9.50;;;;;;;;;;493739;27;1084;-75
2023/12/14 01:12:41;;;;;;;17.33;9.30;;;;;;;;;;493936;27;901;-74
2023/12/14 01:12:57;;;;;;;18.77;9.43;;;;;;;;;;496457;27;1164;-74
2023/12/14 01:13:12;;;;;;;15.87;9.67;;;;;;;;;;496274;27;1032;-75
2023/12/14 01:13:27;;;;;;;16.13;9.60;;;;;;;;;;493234;27;1278;-74
2023/12/14 01:13:43;;;;;;;18.23;9.60;;;;;;;;;;491083;28;1277;-74
2023/12/14 01:13:58;;;;;;;16.07;9.97;;;;;;;;;;492009;28;1056;-74
2023/12/14 01:14:14;;;;;;;16.02;10.27;;;;;;;;;;491453;28;1232;-75
2023/12/14 01:14:29;;;;;;;15.33;9.67;;;;;;;;;;489097;28;1170;-74
2023/12/14 01:14:45;;;;;;;12.52;8.88;;;;;;;;;;487634;28;1238;-75
2023/12/14 01:15:00;;;;;;;12.60;8.80;;;;;;;;;;487592;28;1014;-74
2023/12/14 01:15:16;;;;;;;14.30;9.40;;;;;;;;;;488042;28;1013;-75
2023/12/14 01:15:31;;;;;;;13.27;9.60;;;;;;;;;;489280;28;949;-74
2023/12/14 01:15:47;;;;;;;12.13;9.40;;;;;;;;;;491580;28;1058;-74
2023/12/14 01:16:02;;;;;;;12.77;9.10;;;;;;;;;;492186;28;1080;-74
2023/12/14 01:16:18;;;;;;;12.13;8.48;;;;;;;;;;492014;27;975;-74
2023/12/14 01:16:33;;;;;;;11.07;8.20;;;;;;;;;;493619;27;976;-75
2023/12/14 01:16:48;;;;;;;11.77;8.52;;;;;;;;;;495474;27;1180;-74
2023/12/14 01:17:04;;;;;;;13.53;9.03;;;;;;;;;;496649;27;1199;-74
2023/12/14 01:17:19;;;;;;;14.70;9.35;;;;;;;;;;493401;27;1294;-74
2023/12/14 01:17:37;;;;;;;12.80;8.80;;;;;;;;;;491658;28;2025;-73
2023/12/14 01:17:52;;;;;;;12.25;8.88;;;;;;;;;;491627;28;1107;-74
2023/12/14 01:18:08;;;;;;;13.00;8.90;;;;;;;;;;489963;28;1343;-74
2023/12/14 01:18:24;;;;;;;12.25;8.65;;;;;;;;;;489203;28;1088;-74
2023/12/14 01:18:40;;;;;;;12.13;8.70;;;;;;;;;;489884;28;1072;-74
2023/12/14 01:18:55;;;;;;;14.03;8.37;;;;;;;;;;489779;28;1081;-74
2023/12/14 01:19:10;;;;;;;14.07;8.38;;;;;;;;;;490641;28;1111;-74
2023/12/14 01:19:26;;;;;;;12.07;8.57;;;;;;;;;;491574;28;1174;-74
2023/12/14 01:19:41;;;;;;;12.27;8.90;;;;;;;;;;492201;28;1182;-74
2023/12/14 01:19:57;;;;;;;11.53;8.73;;;;;;;;;;491920;27;1144;-73
2023/12/14 01:20:12;;;;;;;11.35;8.50;;;;;;;;;;492981;27;996;-73
2023/12/14 01:20:29;;;;;;;11.50;8.60;;;;;;;;;;493632;27;1024;-73
2023/12/14 01:20:44;;;;;;;12.07;8.30;;;;;;;;;;493961;27;1080;-73
2023/12/14 01:20:59;;;;;;;13.50;8.50;;;;;;;;;;493439;27;945;-73
2023/12/14 01:21:15;;;;;;;13.87;8.73;;;;;;;;;;491715;27;1363;-73
2023/12/14 01:21:31;;;;;;;11.77;8.50;;;;;;;;;;493243;27;957;-74
2023/12/14 01:21:46;;;;;;;10.30;8.18;;;;;;;;;;493278;27;1154;-73
2023/12/14 01:22:01;;;;;;;11.13;8.17;;;;;;;;;;492663;27;1052;-73
2023/12/14 01:22:17;;;;;;;11.30;8.10;;;;;;;;;;491393;28;1295;-73
2023/12/14 01:22:33;;;;;;;10.48;8.20;;;;;;;;;;491960;28;1409;-73
2023/12/14 01:22:48;;;;;;;10.55;8.43;;;;;;;;;;492094;28;1048;-73
2023/12/14 01:23:04;;;;;;;11.20;8.40;;;;;;;;;;492377;27;1077;-73
2023/12/14 01:23:19;;;;;;;10.63;8.10;;;;;;;;;;491696;28;1279;-73
2023/12/14 01:23:35;;;;;;;10.77;8.50;;;;;;;;;;487717;28;1239;-73
2023/12/14 01:23:52;;;;;;;12.83;8.70;;;;;;;;;;485113;28;1222;-73
2023/12/14 01:24:07;;;;;;;13.02;8.65;;;;;;;;;;486625;28;1464;-73
2023/12/14 01:24:22;;;;;;;12.60;9.07;;;;;;;;;;486648;28;1107;-73
2023/12/14 01:24:38;;;;;;;12.23;8.95;;;;;;;;;;486343;28;1082;-73
2023/12/14 01:24:53;;;;;;;11.47;8.70;;;;;;;;;;486923;28;1119;-73
2023/12/14 01:25:09;;;;;;;10.80;8.53;;;;;;;;;;484407;28;1182;-73
2023/12/14 01:25:24;;;;;;;10.55;8.18;;;;;;;;;;486821;28;989;-73
2023/12/14 01:25:39;;;;;;;10.50;7.97;;;;;;;;;;490304;28;1159;-74
2023/12/14 01:25:55;;;;;;;10.00;8.10;;;;;;;;;;492375;27;956;-73
2023/12/14 01:26:10;;;;;;;9.70;8.13;;;;;;;;;;491187;28;1193;-73
2023/12/14 01:26:29;;;;;;;10.60;8.32;;;;;;;;;;490815;28;1017;-73
2023/12/14 01:26:44;;;;;;;11.98;9.13;;;;;;;;;;491066;28;1078;-73
2023/12/14 01:27:00;;;;;;;11.07;8.95;;;;;;;;;;491748;27;1248;-73
2023/12/14 01:27:15;;;;;;;11.30;8.87;;;;;;;;;;493459;27;929;-73
2023/12/14 01:27:30;;;;;;;11.90;9.03;;;;;;;;;;493509;27;1057;-74
2023/12/14 01:27:46;;;;;;;12.02;8.93;;;;;;;;;;493097;27;1020;-73
2023/12/14 01:28:01;;;;;;;11.40;8.80;;;;;;;;;;493125;27;1073;-73
2023/12/14 01:28:17;;;;;;;11.32;8.73;;;;;;;;;;491570;27;1208;-73
2023/12/14 01:28:32;;;;;;;11.60;8.70;;;;;;;;;;492109;27;1067;-73
2023/12/14 01:28:48;;;;;;;11.98;8.82;;;;;;;;;;492797;27;969;-73
2023/12/14 01:29:03;;;;;;;11.40;8.73;;;;;;;;;;493046;27;1089;-73
2023/12/14 01:29:19;;;;;;;10.18;8.73;;;;;;;;;;493031;27;1134;-73
2023/12/14 01:29:34;;;;;;;10.57;8.33;;;;;;;;;;494055;27;1326;-73
2023/12/14 01:29:50;;;;;;;12.13;8.68;;;;;;;;;;493613;27;1003;-73
2023/12/14 01:30:06;;;;;;;12.20;9.30;;;;;;;;;;493209;27;1148;-73
2023/12/14 01:30:21;;;;;;;11.57;9.00;;;;;;;;;;494155;27;1163;-75
2023/12/14 01:30:36;;;;;;;11.77;9.10;;;;;;;;;;494106;27;937;-73
2023/12/14 01:30:53;;;;;;;11.63;9.10;;;;;;;;;;493070;27;1048;-73
2023/12/14 01:31:08;;;;;;;10.77;8.65;;;;;;;;;;492929;27;1118;-74
2023/12/14 01:31:24;;;;;;;11.07;8.25;;;;;;;;;;494316;27;1056;-74
2023/12/14 01:31:39;;;;;;;11.43;8.50;;;;;;;;;;495651;27;1120;-73
2023/12/14 01:31:54;;;;;;;10.90;8.63;;;;;;;;;;493752;27;1175;-74
2023/12/14 01:32:10;;;;;;;9.93;7.97;;;;;;;;;;493819;27;1073;-73
2023/12/14 01:32:25;;;;;;;10.43;7.97;;;;;;;;;;494177;27;1092;-73
2023/12/14 01:32:41;;;;;;;11.73;8.60;;;;;;;;;;492144;28;1304;-73
2023/12/14 01:32:56;;;;;;;11.10;8.50;;;;;;;;;;489710;28;1380;-73
2023/12/14 01:33:12;;;;;;;11.07;8.30;;;;;;;;;;489758;28;948;-74
2023/12/14 01:33:27;;;;;;;11.07;8.03;;;;;;;;;;489408;28;1041;-73
2023/12/14 01:33:42;;;;;;;10.48;7.85;;;;;;;;;;489606;28;1117;-73
2023/12/14 01:33:58;;;;;;;10.20;7.97;;;;;;;;;;489842;28;1266;-73
2023/12/14 01:34:15;;;;;;;10.50;8.20;;;;;;;;;;489120;28;977;-73
2023/12/14 01:34:30;;;;;;;11.05;8.30;;;;;;;;;;490240;28;915;-73
2023/12/14 01:34:46;;;;;;;9.90;7.77;;;;;;;;;;491987;27;956;-73
2023/12/14 01:35:01;;;;;;;10.30;7.90;;;;;;;;;;493233;27;1072;-73
2023/12/14 01:35:17;;;;;;;10.37;7.87;;;;;;;;;;492907;27;949;-74